sensor_id;sensor_type;location;lat;lon;timestamp;pressure;altitude;pressure_sealevel;temperature;humidity
30302;BME280;17111;52.130;5.028;2023-04-29T00:00:06;101609.50;;;20.17;49.14
30302;BME280;17111;52.130;5.028;2023-04-29T00:02:34;101606.97;;;20.16;48.87
30302;BME280;17111;52.130;5.028;2023-04-29T00:05:01;101613.38;;;20.15;49.05
30302;BME280;17111;52.130;5.028;2023-04-29T00:07:31;101616.19;;;20.13;48.90
30302;BME280;17111;52.130;5.028;2023-04-29T00:09:57;101622.56;;;20.12;49.26
30302;BME280;17111;52.130;5.028;2023-04-29T00:12:25;101615.50;;;20.11;48.81
30302;BME280;17111;52.130;5.028;2023-04-29T00:14:51;101615.63;;;20.10;49.12
30302;BME280;17111;52.130;5.028;2023-04-29T00:17:18;101623.72;;;20.10;48.59
30302;BME280;17111;52.130;5.028;2023-04-29T00:19:44;101622.03;;;20.09;48.42
30302;BME280;17111;52.130;5.028;2023-04-29T00:22:11;101619.50;;;20.07;49.30
30302;BME280;17111;52.130;5.028;2023-04-29T00:24:37;101622.19;;;20.07;48.36
30302;BME280;17111;52.130;5.028;2023-04-29T00:27:04;101626.84;;;20.05;48.41
30302;BME280;17111;52.130;5.028;2023-04-29T00:29:31;101630.53;;;20.04;48.45
30302;BME280;17111;52.130;5.028;2023-04-29T00:31:58;101641.31;;;20.04;48.62
30302;BME280;17111;52.130;5.028;2023-04-29T00:34:25;101634.25;;;20.03;48.28
30302;BME280;17111;52.130;5.028;2023-04-29T00:36:52;101637.94;;;20.02;48.61
30302;BME280;17111;52.130;5.028;2023-04-29T00:39:18;101638.91;;;20.01;48.57
30302;BME280;17111;52.130;5.028;2023-04-29T00:41:45;101644.28;;;20.01;48.83
30302;BME280;17111;52.130;5.028;2023-04-29T00:44:11;101647.97;;;20.00;48.41
30302;BME280;17111;52.130;5.028;2023-04-29T00:46:38;101648.13;;;19.99;48.88
30302;BME280;17111;52.130;5.028;2023-04-29T00:49:05;101651.69;;;19.99;48.34
30302;BME280;17111;52.130;5.028;2023-04-29T00:51:32;101655.38;;;19.98;48.82
30302;BME280;17111;52.130;5.028;2023-04-29T00:53:59;101654.50;;;19.97;48.42
30302;BME280;17111;52.130;5.028;2023-04-29T00:56:28;101658.19;;;19.96;49.00
30302;BME280;17111;52.130;5.028;2023-04-29T00:58:56;101649.28;;;19.96;48.30
30302;BME280;17111;52.130;5.028;2023-04-29T01:01:23;101663.72;;;19.95;48.33
30302;BME280;17111;52.130;5.028;2023-04-29T01:03:50;101653.97;;;19.94;48.27
30302;BME280;17111;52.130;5.028;2023-04-29T01:11:31;101666.69;;;19.92;48.74
30302;BME280;17111;52.130;5.028;2023-04-29T01:14:01;101661.47;;;19.90;48.56
30302;BME280;17111;52.130;5.028;2023-04-29T01:16:44;101673.22;;;19.89;48.36
30302;BME280;17111;52.130;5.028;2023-04-29T01:21:46;101671.38;;;19.90;48.42
30302;BME280;17111;52.130;5.028;2023-04-29T01:24:16;101676.91;;;19.88;48.39
30302;BME280;17111;52.130;5.028;2023-04-29T01:26:50;101674.38;;;19.87;48.02
30302;BME280;17111;52.130;5.028;2023-04-29T01:29:43;101670.84;;;19.86;48.18
30302;BME280;17111;52.130;5.028;2023-04-29T01:32:17;101686.97;;;19.86;48.32
30302;BME280;17111;52.130;5.028;2023-04-29T01:35:01;101680.88;;;19.84;47.92
30302;BME280;17111;52.130;5.028;2023-04-29T01:40:19;101682.00;;;19.82;47.78
30302;BME280;17111;52.130;5.028;2023-04-29T01:42:59;101686.53;;;19.81;48.47
30302;BME280;17111;52.130;5.028;2023-04-29T01:45:27;101690.06;;;19.82;48.35
30302;BME280;17111;52.130;5.028;2023-04-29T01:47:54;101693.94;;;19.79;48.57
30302;BME280;17111;52.130;5.028;2023-04-29T01:50:24;101693.09;;;19.79;48.07
30302;BME280;17111;52.130;5.028;2023-04-29T01:52:50;101695.06;;;19.77;47.98
30302;BME280;17111;52.130;5.028;2023-04-29T01:55:17;101691.50;;;19.76;48.14
30302;BME280;17111;52.130;5.028;2023-04-29T01:57:44;101686.28;;;19.75;47.98
30302;BME280;17111;52.130;5.028;2023-04-29T02:00:10;101695.50;;;19.72;48.44
30302;BME280;17111;52.130;5.028;2023-04-29T02:02:37;101698.19;;;19.72;48.53
30302;BME280;17111;52.130;5.028;2023-04-29T02:05:04;101700.03;;;19.71;48.50
30302;BME280;17111;52.130;5.028;2023-04-29T02:07:31;101696.50;;;19.71;48.73
30302;BME280;17111;52.130;5.028;2023-04-29T02:09:57;101698.34;;;19.70;48.20
30302;BME280;17111;52.130;5.028;2023-04-29T02:12:24;101697.63;;;19.68;47.81
30302;BME280;17111;52.130;5.028;2023-04-29T02:14:51;101704.84;;;19.68;48.24
30302;BME280;17111;52.130;5.028;2023-04-29T02:17:18;101699.63;;;19.66;48.43
30302;BME280;17111;52.130;5.028;2023-04-29T02:19:45;101702.44;;;19.65;47.94
30302;BME280;17111;52.130;5.028;2023-04-29T02:22:11;101715.88;;;19.65;48.19
30302;BME280;17111;52.130;5.028;2023-04-29T02:24:38;101717.72;;;19.64;48.09
30302;BME280;17111;52.130;5.028;2023-04-29T02:27:04;101721.41;;;19.63;47.94
30302;BME280;17111;52.130;5.028;2023-04-29T02:29:32;101720.56;;;19.63;48.05
30302;BME280;17111;52.130;5.028;2023-04-29T02:31:58;101724.25;;;19.62;48.03
30302;BME280;17111;52.130;5.028;2023-04-29T02:34:25;101728.75;;;19.61;48.51
30302;BME280;17111;52.130;5.028;2023-04-29T02:36:51;101731.56;;;19.60;48.39
30302;BME280;17111;52.130;5.028;2023-04-29T02:39:18;101732.56;;;19.59;47.98
30302;BME280;17111;52.130;5.028;2023-04-29T02:41:45;101738.06;;;19.57;48.34
30302;BME280;17111;52.130;5.028;2023-04-29T02:44:12;101743.59;;;19.56;48.23
30302;BME280;17111;52.130;5.028;2023-04-29T02:46:39;101740.91;;;19.56;48.08
30302;BME280;17111;52.130;5.028;2023-04-29T02:49:11;101750.81;;;19.55;48.07
30302;BME280;17111;52.130;5.028;2023-04-29T02:51:38;101756.19;;;19.55;48.41
30302;BME280;17111;52.130;5.028;2023-04-29T02:54:06;101750.09;;;19.53;48.60
30302;BME280;17111;52.130;5.028;2023-04-29T02:56:33;101757.31;;;19.53;48.02
30302;BME280;17111;52.130;5.028;2023-04-29T02:58:59;101756.47;;;19.52;48.17
30302;BME280;17111;52.130;5.028;2023-04-29T03:01:26;101755.78;;;19.50;48.37
30302;BME280;17111;52.130;5.028;2023-04-29T03:03:53;101770.06;;;19.51;48.35
30302;BME280;17111;52.130;5.028;2023-04-29T03:06:20;101768.34;;;19.49;48.54
30302;BME280;17111;52.130;5.028;2023-04-29T03:08:46;101767.50;;;19.49;48.38
30302;BME280;17111;52.130;5.028;2023-04-29T03:11:13;101772.19;;;19.47;48.59
30302;BME280;17111;52.130;5.028;2023-04-29T03:13:39;101775.72;;;19.47;48.64
30302;BME280;17111;52.130;5.028;2023-04-29T03:16:06;101780.25;;;19.47;47.60
30302;BME280;17111;52.130;5.028;2023-04-29T03:18:33;101778.56;;;19.46;47.95
30302;BME280;17111;52.130;5.028;2023-04-29T03:21:00;101773.31;;;19.44;48.37
30302;BME280;17111;52.130;5.028;2023-04-29T03:23:29;101775.16;;;19.44;48.04
30302;BME280;17111;52.130;5.028;2023-04-29T03:25:56;101776.00;;;19.44;48.56
30302;BME280;17111;52.130;5.028;2023-04-29T03:28:22;101783.22;;;19.44;48.06
30302;BME280;17111;52.130;5.028;2023-04-29T03:30:49;101778.84;;;19.43;48.26
30302;BME280;17111;52.130;5.028;2023-04-29T03:33:16;101779.84;;;19.42;48.03
30302;BME280;17111;52.130;5.028;2023-04-29T03:35:42;101777.16;;;19.42;47.91
30302;BME280;17111;52.130;5.028;2023-04-29T03:38:10;101774.56;;;19.40;48.42
30302;BME280;17111;52.130;5.028;2023-04-29T03:40:37;101773.72;;;19.40;47.93
30302;BME280;17111;52.130;5.028;2023-04-29T03:43:03;101779.09;;;19.40;48.53
30302;BME280;17111;52.130;5.028;2023-04-29T03:45:30;101781.94;;;19.38;47.92
30302;BME280;17111;52.130;5.028;2023-04-29T03:47:56;101781.94;;;19.38;48.21
30302;BME280;17111;52.130;5.028;2023-04-29T03:50:23;101791.84;;;19.38;48.35
30302;BME280;17111;52.130;5.028;2023-04-29T03:52:50;101787.44;;;19.37;48.19
30302;BME280;17111;52.130;5.028;2023-04-29T03:55:17;101785.59;;;19.37;48.09
30302;BME280;17111;52.130;5.028;2023-04-29T03:57:44;101794.66;;;19.36;48.58
30302;BME280;17111;52.130;5.028;2023-04-29T04:00:11;101796.50;;;19.36;48.05
30302;BME280;17111;52.130;5.028;2023-04-29T04:02:37;101798.34;;;19.35;48.58
30302;BME280;17111;52.130;5.028;2023-04-29T04:05:04;101801.03;;;19.35;47.95
30302;BME280;17111;52.130;5.028;2023-04-29T04:07:31;101803.88;;;19.34;48.36
30302;BME280;17111;52.130;5.028;2023-04-29T04:09:58;101797.63;;;19.33;47.98
30302;BME280;17111;52.130;5.028;2023-04-29T04:12:24;101805.69;;;19.33;48.12
30302;BME280;17111;52.130;5.028;2023-04-29T04:14:51;101809.38;;;19.32;48.26
30302;BME280;17111;52.130;5.028;2023-04-29T04:17:18;101809.53;;;19.31;47.85
30302;BME280;17111;52.130;5.028;2023-04-29T04:19:45;101819.28;;;19.32;48.37
30302;BME280;17111;52.130;5.028;2023-04-29T04:22:11;101818.44;;;19.31;48.55
30302;BME280;17111;52.130;5.028;2023-04-29T04:24:38;101821.13;;;19.31;48.50
30302;BME280;17111;52.130;5.028;2023-04-29T04:27:05;101815.00;;;19.29;47.96
30302;BME280;17111;52.130;5.028;2023-04-29T04:29:32;101823.97;;;19.30;47.77
30302;BME280;17111;52.130;5.028;2023-04-29T04:31:58;101824.06;;;19.28;47.87
30302;BME280;17111;52.130;5.028;2023-04-29T04:34:25;101826.75;;;19.28;48.44
30302;BME280;17111;52.130;5.028;2023-04-29T04:36:52;101829.44;;;19.28;48.56
30302;BME280;17111;52.130;5.028;2023-04-29T04:39:19;101834.84;;;19.28;48.57
30302;BME280;17111;52.130;5.028;2023-04-29T04:41:45;101837.66;;;19.27;48.30
30302;BME280;17111;52.130;5.028;2023-04-29T04:44:12;101853.78;;;19.27;48.05
30302;BME280;17111;52.130;5.028;2023-04-29T04:46:39;101851.09;;;19.27;48.24
30302;BME280;17111;52.130;5.028;2023-04-29T04:49:06;101851.22;;;19.25;47.66
30302;BME280;17111;52.130;5.028;2023-04-29T04:51:33;101858.44;;;19.24;47.71
30302;BME280;17111;52.130;5.028;2023-04-29T04:53:59;101865.66;;;19.24;48.28
30302;BME280;17111;52.130;5.028;2023-04-29T04:56:26;101870.19;;;19.23;48.23
30302;BME280;17111;52.130;5.028;2023-04-29T04:58:52;101871.88;;;19.24;47.99
30302;BME280;17111;52.130;5.028;2023-04-29T05:01:19;101866.66;;;19.23;47.96
30302;BME280;17111;52.130;5.028;2023-04-29T05:03:46;101863.13;;;19.22;48.01
30302;BME280;17111;52.130;5.028;2023-04-29T05:06:12;101864.97;;;19.22;47.92
30302;BME280;17111;52.130;5.028;2023-04-29T05:08:39;101882.91;;;19.21;48.29
30302;BME280;17111;52.130;5.028;2023-04-29T05:11:14;101880.34;;;19.20;48.21
30302;BME280;17111;52.130;5.028;2023-04-29T05:13:41;101883.88;;;19.20;48.42
30302;BME280;17111;52.130;5.028;2023-04-29T05:16:07;101880.34;;;19.20;48.26
30302;BME280;17111;52.130;5.028;2023-04-29T05:18:34;101884.88;;;19.19;47.99
30302;BME280;17111;52.130;5.028;2023-04-29T05:21:01;101892.94;;;19.19;47.80
30302;BME280;17111;52.130;5.028;2023-04-29T05:23:27;101889.41;;;19.19;48.42
30302;BME280;17111;52.130;5.028;2023-04-29T05:25:54;101888.56;;;19.18;48.61
30302;BME280;17111;52.130;5.028;2023-04-29T05:28:21;101894.06;;;19.17;47.93
30302;BME280;17111;52.130;5.028;2023-04-29T05:30:50;101893.94;;;19.18;48.42
30302;BME280;17111;52.130;5.028;2023-04-29T05:33:17;101886.84;;;19.17;47.92
30302;BME280;17111;52.130;5.028;2023-04-29T05:35:43;101892.22;;;19.17;47.90
30302;BME280;17111;52.130;5.028;2023-04-29T05:38:10;101901.28;;;19.16;48.23
30302;BME280;17111;52.130;5.028;2023-04-29T05:40:36;101907.50;;;19.17;48.27
30302;BME280;17111;52.130;5.028;2023-04-29T05:43:03;101905.81;;;19.16;48.06
30302;BME280;17111;52.130;5.028;2023-04-29T05:45:30;101918.25;;;19.17;47.87
30302;BME280;17111;52.130;5.028;2023-04-29T05:47:56;101918.25;;;19.17;48.65
30302;BME280;17111;52.130;5.028;2023-04-29T05:50:23;101929.00;;;19.17;48.10
30302;BME280;17111;52.130;5.028;2023-04-29T05:52:49;101923.63;;;19.17;48.59
30302;BME280;17111;52.130;5.028;2023-04-29T05:55:17;101924.47;;;19.17;47.82
30302;BME280;17111;52.130;5.028;2023-04-29T05:57:43;101921.66;;;19.19;48.77
30302;BME280;17111;52.130;5.028;2023-04-29T06:00:10;101929.72;;;19.19;48.26
30302;BME280;17111;52.130;5.028;2023-04-29T06:02:37;101942.16;;;19.20;48.38
30302;BME280;17111;52.130;5.028;2023-04-29T06:05:23;101949.25;;;19.21;48.18
30302;BME280;17111;52.130;5.028;2023-04-29T06:07:50;101948.28;;;19.22;48.11
30302;BME280;17111;52.130;5.028;2023-04-29T06:10:17;101943.75;;;19.22;47.81
30302;BME280;17111;52.130;5.028;2023-04-29T06:12:44;101957.19;;;19.22;47.95
30302;BME280;17111;52.130;5.028;2023-04-29T06:15:12;101955.34;;;19.23;47.55
30302;BME280;17111;52.130;5.028;2023-04-29T06:17:38;101957.03;;;19.24;47.99
30302;BME280;17111;52.130;5.028;2023-04-29T06:20:06;101959.72;;;19.24;47.76
30302;BME280;17111;52.130;5.028;2023-04-29T06:22:32;101965.09;;;19.24;48.49
30302;BME280;17111;52.130;5.028;2023-04-29T06:24:59;101972.19;;;19.25;48.21
30302;BME280;17111;52.130;5.028;2023-04-29T06:27:25;101974.03;;;19.24;48.05
30302;BME280;17111;52.130;5.028;2023-04-29T06:29:53;101980.25;;;19.25;48.23
30302;BME280;17111;52.130;5.028;2023-04-29T06:32:20;101984.50;;;19.28;48.09
30302;BME280;17111;52.130;5.028;2023-04-29T06:34:47;101993.41;;;19.28;48.38
30302;BME280;17111;52.130;5.028;2023-04-29T06:37:13;101996.84;;;19.30;48.37
30302;BME280;17111;52.130;5.028;2023-04-29T06:39:40;101992.16;;;19.32;47.67
30302;BME280;17111;52.130;5.028;2023-04-29T06:42:06;101991.19;;;19.33;47.56
30302;BME280;17111;52.130;5.028;2023-04-29T06:44:33;101999.13;;;19.35;48.00
30302;BME280;17111;52.130;5.028;2023-04-29T06:46:59;101989.06;;;19.37;47.45
30302;BME280;17111;52.130;5.028;2023-04-29T06:49:26;102001.56;;;19.38;48.08
30302;BME280;17111;52.130;5.028;2023-04-29T06:51:53;102005.94;;;19.39;47.55
30302;BME280;17111;52.130;5.028;2023-04-29T06:54:19;102006.78;;;19.39;47.96
30302;BME280;17111;52.130;5.028;2023-04-29T06:56:46;102010.31;;;19.40;47.95
30302;BME280;17111;52.130;5.028;2023-04-29T06:59:13;102011.16;;;19.40;47.79
30302;BME280;17111;52.130;5.028;2023-04-29T07:01:40;102016.53;;;19.40;48.06
30302;BME280;17111;52.130;5.028;2023-04-29T07:04:10;102026.44;;;19.40;48.31
30302;BME280;17111;52.130;5.028;2023-04-29T07:06:37;102033.41;;;19.42;47.49
30302;BME280;17111;52.130;5.028;2023-04-29T07:09:04;102029.72;;;19.43;48.18
30302;BME280;17111;52.130;5.028;2023-04-29T07:11:31;102038.50;;;19.45;48.13
30302;BME280;17111;52.130;5.028;2023-04-29T07:13:57;102042.06;;;19.46;47.42
30302;BME280;17111;52.130;5.028;2023-04-29T07:16:24;102046.44;;;19.47;47.83
30302;BME280;17111;52.130;5.028;2023-04-29T07:18:52;102052.53;;;19.49;47.82
30302;BME280;17111;52.130;5.028;2023-04-29T07:21:18;102048.88;;;19.50;47.67
30302;BME280;17111;52.130;5.028;2023-04-29T07:23:45;102052.28;;;19.52;48.00
30302;BME280;17111;52.130;5.028;2023-04-29T07:26:12;102053.13;;;19.53;47.87
30302;BME280;17111;52.130;5.028;2023-04-29T07:28:41;102051.28;;;19.53;47.76
30302;BME280;17111;52.130;5.028;2023-04-29T07:31:07;102054.81;;;19.54;47.44
30302;BME280;17111;52.130;5.028;2023-04-29T07:33:35;102058.63;;;19.51;48.36
30302;BME280;17111;52.130;5.028;2023-04-29T07:36:01;102061.59;;;19.48;48.63
30302;BME280;17111;52.130;5.028;2023-04-29T07:38:29;102062.59;;;19.47;48.07
30302;BME280;17111;52.130;5.028;2023-04-29T07:40:56;102063.44;;;19.47;48.54
30302;BME280;17111;52.130;5.028;2023-04-29T07:43:23;102059.75;;;19.48;48.31
30302;BME280;17111;52.130;5.028;2023-04-29T07:45:49;102082.00;;;19.51;48.26
30302;BME280;17111;52.130;5.028;2023-04-29T07:48:16;102073.78;;;19.52;48.27
30302;BME280;17111;52.130;5.028;2023-04-29T07:50:42;102077.22;;;19.54;48.11
30302;BME280;17111;52.130;5.028;2023-04-29T07:53:09;102078.91;;;19.55;48.12
30302;BME280;17111;52.130;5.028;2023-04-29T07:55:37;102084.03;;;19.58;48.24
30302;BME280;17111;52.130;5.028;2023-04-29T07:58:03;102084.72;;;19.60;47.81
30302;BME280;17111;52.130;5.028;2023-04-29T08:00:30;102089.13;;;19.61;48.25
30302;BME280;17111;52.130;5.028;2023-04-29T08:02:57;102087.19;;;19.63;47.76
30302;BME280;17111;52.130;5.028;2023-04-29T08:05:25;102093.25;;;19.65;48.06
30302;BME280;17111;52.130;5.028;2023-04-29T08:07:52;102097.53;;;19.68;48.18
30302;BME280;17111;52.130;5.028;2023-04-29T08:10:19;102094.00;;;19.67;49.59
30302;BME280;17111;52.130;5.028;2023-04-29T08:12:48;102096.69;;;19.67;50.96
30302;BME280;17111;52.130;5.028;2023-04-29T08:15:15;102095.94;;;19.65;53.18
30302;BME280;17111;52.130;5.028;2023-04-29T08:17:43;102102.47;;;19.63;53.90
30302;BME280;17111;52.130;5.028;2023-04-29T08:20:10;102109.78;;;19.61;54.04
30302;BME280;17111;52.130;5.028;2023-04-29T08:22:37;102101.00;;;19.59;54.54
30302;BME280;17111;52.130;5.028;2023-04-29T08:25:04;102102.09;;;19.56;54.33
30302;BME280;17111;52.130;5.028;2023-04-29T08:27:31;102095.88;;;19.56;54.50
30302;BME280;17111;52.130;5.028;2023-04-29T08:29:57;102096.88;;;19.55;55.09
30302;BME280;17111;52.130;5.028;2023-04-29T08:32:24;102104.34;;;19.51;54.57
30302;BME280;17111;52.130;5.028;2023-04-29T08:34:51;102102.66;;;19.50;54.93
30302;BME280;17111;52.130;5.028;2023-04-29T08:37:18;102112.53;;;19.49;54.34
30302;BME280;17111;52.130;5.028;2023-04-29T08:39:46;102110.97;;;19.47;54.08
30302;BME280;17111;52.130;5.028;2023-04-29T08:42:13;102108.41;;;19.45;54.79
30302;BME280;17111;52.130;5.028;2023-04-29T08:44:40;102109.41;;;19.44;53.88
30302;BME280;17111;52.130;5.028;2023-04-29T08:47:07;102116.63;;;19.44;54.47
30302;BME280;17111;52.130;5.028;2023-04-29T08:49:34;102123.00;;;19.43;54.15
30302;BME280;17111;52.130;5.028;2023-04-29T08:52:03;102119.44;;;19.42;54.25
30302;BME280;17111;52.130;5.028;2023-04-29T08:54:30;102124.81;;;19.42;53.79
30302;BME280;17111;52.130;5.028;2023-04-29T08:56:58;102132.03;;;19.42;53.69
30302;BME280;17111;52.130;5.028;2023-04-29T08:59:26;102123.09;;;19.41;53.32
30302;BME280;17111;52.130;5.028;2023-04-29T09:01:54;102135.69;;;19.41;52.98
30302;BME280;17111;52.130;5.028;2023-04-29T09:05:04;102138.53;;;19.39;54.02
30302;BME280;17111;52.130;5.028;2023-04-29T09:07:34;102139.22;;;19.41;53.24
30302;BME280;17111;52.130;5.028;2023-04-29T09:10:03;102135.69;;;19.41;53.62
30302;BME280;17111;52.130;5.028;2023-04-29T09:12:30;102138.28;;;19.42;52.95
30302;BME280;17111;52.130;5.028;2023-04-29T09:14:56;102147.03;;;19.44;52.92
30302;BME280;17111;52.130;5.028;2023-04-29T09:17:42;102140.81;;;19.44;53.62
30302;BME280;17111;52.130;5.028;2023-04-29T09:22:51;102145.94;;;19.47;53.56
30302;BME280;17111;52.130;5.028;2023-04-29T09:25:19;102148.75;;;19.45;53.19
30302;BME280;17111;52.130;5.028;2023-04-29T09:27:46;102149.63;;;19.46;53.24
30302;BME280;17111;52.130;5.028;2023-04-29T09:30:13;102149.47;;;19.47;52.91
30302;BME280;17111;52.130;5.028;2023-04-29T09:32:42;102146.53;;;19.51;52.93
30302;BME280;17111;52.130;5.028;2023-04-29T09:35:28;102149.09;;;19.52;53.57
30302;BME280;17111;52.130;5.028;2023-04-29T09:38:12;102148.69;;;19.57;53.16
30302;BME280;17111;52.130;5.028;2023-04-29T09:40:40;102163.50;;;19.62;52.39
30302;BME280;17111;52.130;5.028;2023-04-29T09:43:24;102159.56;;;19.66;52.05
30302;BME280;17111;52.130;5.028;2023-04-29T09:45:50;102162.09;;;19.68;52.56
30302;BME280;17111;52.130;5.028;2023-04-29T09:48:17;102169.91;;;19.71;52.64
30302;BME280;17111;52.130;5.028;2023-04-29T09:50:58;102161.69;;;19.72;51.76
30302;BME280;17111;52.130;5.028;2023-04-29T09:53:29;102163.13;;;19.77;51.34
30302;BME280;17111;52.130;5.028;2023-04-29T09:55:58;102160.19;;;19.80;51.34
30302;BME280;17111;52.130;5.028;2023-04-29T09:58:30;102164.75;;;19.89;51.98
30302;BME280;17111;52.130;5.028;2023-04-29T10:01:02;102166.78;;;19.96;51.05
30302;BME280;17111;52.130;5.028;2023-04-29T10:03:35;102161.56;;;20.05;51.63
30302;BME280;17111;52.130;5.028;2023-04-29T10:06:05;102161.63;;;20.14;50.42
30302;BME280;17111;52.130;5.028;2023-04-29T10:08:32;102164.50;;;20.23;50.75
30302;BME280;17111;52.130;5.028;2023-04-29T10:11:02;102165.53;;;20.31;50.54
30302;BME280;17111;52.130;5.028;2023-04-29T10:13:30;102166.53;;;20.40;50.46
30302;BME280;17111;52.130;5.028;2023-04-29T10:18:36;102170.69;;;20.54;49.64
30302;BME280;17111;52.130;5.028;2023-04-29T10:21:06;102170.31;;;20.58;49.47
30302;BME280;17111;52.130;5.028;2023-04-29T10:23:35;102175.41;;;20.61;49.41
30302;BME280;17111;52.130;5.028;2023-04-29T10:26:03;102170.88;;;20.62;49.00
30302;BME280;17111;52.130;5.028;2023-04-29T10:28:31;102171.75;;;20.62;49.44
30302;BME280;17111;52.130;5.028;2023-04-29T10:31:01;102171.31;;;20.67;49.00
30302;BME280;17111;52.130;5.028;2023-04-29T10:33:31;102177.28;;;20.70;48.99
30302;BME280;17111;52.130;5.028;2023-04-29T10:36:01;102185.91;;;20.74;49.40
30302;BME280;17111;52.130;5.028;2023-04-29T10:38:34;102174.88;;;20.77;48.30
30302;BME280;17111;52.130;5.028;2023-04-29T10:41:02;102175.03;;;20.76;47.29
30302;BME280;17111;52.130;5.028;2023-04-29T10:43:33;102163.66;;;20.82;48.16
30302;BME280;17111;52.130;5.028;2023-04-29T10:46:32;102169.38;;;20.79;48.44
30302;BME280;17111;52.130;5.028;2023-04-29T10:49:03;102168.09;;;20.83;48.23
30302;BME280;17111;52.130;5.028;2023-04-29T10:54:06;102177.84;;;20.74;48.16
30302;BME280;17111;52.130;5.028;2023-04-29T10:56:41;102178.41;;;20.68;48.06
30302;BME280;17111;52.130;5.028;2023-04-29T10:59:13;102185.06;;;20.64;48.23
30302;BME280;17111;52.130;5.028;2023-04-29T11:01:50;102173.84;;;20.59;48.25
30302;BME280;17111;52.130;5.028;2023-04-29T11:04:21;102171.16;;;20.59;48.49
30302;BME280;17111;52.130;5.028;2023-04-29T11:06:55;102165.91;;;20.57;48.52
30302;BME280;17111;52.130;5.028;2023-04-29T11:09:25;102179.50;;;20.56;48.89
30302;BME280;17111;52.130;5.028;2023-04-29T11:12:02;102181.47;;;20.54;48.69
30302;BME280;17111;52.130;5.028;2023-04-29T11:14:36;102185.91;;;20.55;48.95
30302;BME280;17111;52.130;5.028;2023-04-29T11:17:09;102180.50;;;20.55;49.41
30302;BME280;17111;52.130;5.028;2023-04-29T11:19:40;102192.97;;;20.56;50.13
30302;BME280;17111;52.130;5.028;2023-04-29T11:24:56;102186.34;;;20.60;51.22
30302;BME280;17111;52.130;5.028;2023-04-29T11:27:25;102180.78;;;20.61;50.83
30302;BME280;17111;52.130;5.028;2023-04-29T11:29:54;102184.47;;;20.60;51.19
30302;BME280;17111;52.130;5.028;2023-04-29T11:32:43;102181.78;;;20.60;50.51
30302;BME280;17111;52.130;5.028;2023-04-29T11:35:17;102173.44;;;20.63;50.81
30302;BME280;17111;52.130;5.028;2023-04-29T11:37:45;102179.84;;;20.72;50.09
30302;BME280;17111;52.130;5.028;2023-04-29T11:40:13;102182.53;;;20.82;49.64
30302;BME280;17111;52.130;5.028;2023-04-29T11:42:47;102186.25;;;20.90;49.49
30302;BME280;17111;52.130;5.028;2023-04-29T11:45:16;102177.44;;;20.98;49.26
30302;BME280;17111;52.130;5.028;2023-04-29T11:47:44;102188.38;;;21.06;49.27
30302;BME280;17111;52.130;5.028;2023-04-29T11:50:13;102186.81;;;21.13;49.31
30302;BME280;17111;52.130;5.028;2023-04-29T11:52:42;102200.72;;;21.18;48.65
30302;BME280;17111;52.130;5.028;2023-04-29T11:55:10;102195.63;;;21.25;48.81
30302;BME280;17111;52.130;5.028;2023-04-29T11:57:37;102187.94;;;21.30;48.31
30302;BME280;17111;52.130;5.028;2023-04-29T12:00:09;102187.59;;;21.35;48.08
30302;BME280;17111;52.130;5.028;2023-04-29T12:02:38;102185.44;;;21.38;48.27
30302;BME280;17111;52.130;5.028;2023-04-29T12:05:06;102180.59;;;21.42;48.35
30302;BME280;17111;52.130;5.028;2023-04-29T12:07:38;102186.56;;;21.46;48.30
30302;BME280;17111;52.130;5.028;2023-04-29T12:10:09;102184.59;;;21.48;47.55
30302;BME280;17111;52.130;5.028;2023-04-29T12:12:38;102181.72;;;21.49;47.86
30302;BME280;17111;52.130;5.028;2023-04-29T12:15:07;102183.31;;;21.52;47.77
30302;BME280;17111;52.130;5.028;2023-04-29T12:17:35;102185.84;;;21.53;48.23
30302;BME280;17111;52.130;5.028;2023-04-29T12:20:02;102191.97;;;21.55;47.92
30302;BME280;17111;52.130;5.028;2023-04-29T12:22:32;102201.59;;;21.58;47.47
30302;BME280;17111;52.130;5.028;2023-04-29T12:24:59;102193.50;;;21.58;47.63
30302;BME280;17111;52.130;5.028;2023-04-29T12:27:28;102193.38;;;21.59;47.78
30302;BME280;17111;52.130;5.028;2023-04-29T12:29:55;102192.53;;;21.59;47.54
30302;BME280;17111;52.130;5.028;2023-04-29T12:32:23;102197.78;;;21.60;47.63
30302;BME280;17111;52.130;5.028;2023-04-29T12:34:51;102196.75;;;21.61;47.81
30302;BME280;17111;52.130;5.028;2023-04-29T12:37:21;102191.38;;;21.61;47.89
30302;BME280;17111;52.130;5.028;2023-04-29T12:39:53;102202.16;;;21.61;47.54
30302;BME280;17111;52.130;5.028;2023-04-29T12:42:20;102202.03;;;21.63;47.51
30302;BME280;17111;52.130;5.028;2023-04-29T12:44:47;102205.72;;;21.62;47.15
30302;BME280;17111;52.130;5.028;2023-04-29T12:47:15;102203.84;;;21.62;47.24
30302;BME280;17111;52.130;5.028;2023-04-29T12:49:46;102202.16;;;21.61;47.12
30302;BME280;17111;52.130;5.028;2023-04-29T12:52:13;102214.66;;;21.62;46.98
30302;BME280;17111;52.130;5.028;2023-04-29T12:54:40;102198.47;;;21.62;47.17
30302;BME280;17111;52.130;5.028;2023-04-29T12:57:16;102202.03;;;21.63;47.29
30302;BME280;17111;52.130;5.028;2023-04-29T12:59:42;102204.72;;;21.63;47.56
30302;BME280;17111;52.130;5.028;2023-04-29T13:02:09;102206.56;;;21.62;47.37
30302;BME280;17111;52.130;5.028;2023-04-29T13:04:35;102208.41;;;21.62;47.40
30302;BME280;17111;52.130;5.028;2023-04-29T13:07:04;102207.56;;;21.61;47.44
30302;BME280;17111;52.130;5.028;2023-04-29T13:09:31;102213.81;;;21.62;47.53
30302;BME280;17111;52.130;5.028;2023-04-29T13:11:59;102222.91;;;21.61;47.53
30302;BME280;17111;52.130;5.028;2023-04-29T13:14:27;102219.19;;;21.62;47.45
30302;BME280;17111;52.130;5.028;2023-04-29T13:16:54;102217.34;;;21.62;47.77